Milwaukee, Wisconsin
Traffic Map
Current Weather Conditions
Milwaukee, Wisconsin
Broken Clouds
Broken Clouds
20°
Feels Like: 20°
Wind Chill: 20° Ceiling: 8000
Heat Index: 20° Visibility: 10mi
Dew Point: 18° Wind: 18mph
Humidity: 87% Direction: 30° (NNE)
Pressure: 29.92in Gusts: 24mph
Raw Report DataKMKE 290012Z 03016G21KT 10SM SCT020 BKN080 BKN220 BKN250 20/18 A2992 RMK AO2 T02000178
Traffic Incident Summary
Active as of:
Severity:
Category:
InformationThere was an issue retrieving the traffic information for this location. Please try a different location or try again shortly.
Advertisements
Track Severe Weather on mobile